sensor_id;sensor_type;location;lat;lon;timestamp;P1;durP1;ratioP1;P2;durP2;ratioP2
13463;SDS011;6804;48.774;9.174;2023-10-19T00:00:56;9.07;;;7.70;;
13463;SDS011;6804;48.774;9.174;2023-10-19T00:03:25;8.77;;;7.60;;
13463;SDS011;6804;48.774;9.174;2023-10-19T00:05:56;8.60;;;7.27;;
13463;SDS011;6804;48.774;9.174;2023-10-19T00:08:23;7.90;;;6.97;;
13463;SDS011;6804;48.774;9.174;2023-10-19T00:10:50;7.93;;;7.17;;
13463;SDS011;6804;48.774;9.174;2023-10-19T00:13:28;9.30;;;6.70;;
13463;SDS011;6804;48.774;9.174;2023-10-19T00:15:55;9.70;;;7.33;;
13463;SDS011;6804;48.774;9.174;2023-10-19T00:18:24;7.50;;;6.80;;
13463;SDS011;6804;48.774;9.174;2023-10-19T00:20:53;7.90;;;6.93;;
13463;SDS011;6804;48.774;9.174;2023-10-19T00:23:37;7.70;;;6.90;;
13463;SDS011;6804;48.774;9.174;2023-10-19T00:26:06;7.30;;;6.27;;
13463;SDS011;6804;48.774;9.174;2023-10-19T00:28:41;7.33;;;6.57;;
13463;SDS011;6804;48.774;9.174;2023-10-19T00:31:11;8.67;;;6.97;;
13463;SDS011;6804;48.774;9.174;2023-10-19T00:33:39;6.90;;;6.20;;
13463;SDS011;6804;48.774;9.174;2023-10-19T00:36:07;6.43;;;5.83;;
13463;SDS011;6804;48.774;9.174;2023-10-19T00:38:38;6.77;;;6.00;;
13463;SDS011;6804;48.774;9.174;2023-10-19T00:41:16;6.50;;;5.60;;
13463;SDS011;6804;48.774;9.174;2023-10-19T00:43:48;6.00;;;5.40;;
13463;SDS011;6804;48.774;9.174;2023-10-19T00:46:25;6.07;;;5.47;;
13463;SDS011;6804;48.774;9.174;2023-10-19T00:48:59;6.43;;;4.93;;
13463;SDS011;6804;48.774;9.174;2023-10-19T00:51:33;5.63;;;5.03;;
13463;SDS011;6804;48.774;9.174;2023-10-19T00:54:19;5.60;;;5.10;;
13463;SDS011;6804;48.774;9.174;2023-10-19T00:56:59;5.30;;;4.80;;
13463;SDS011;6804;48.774;9.174;2023-10-19T00:59:30;5.13;;;4.10;;
13463;SDS011;6804;48.774;9.174;2023-10-19T01:02:04;4.53;;;4.07;;
13463;SDS011;6804;48.774;9.174;2023-10-19T01:04:49;5.10;;;4.60;;
13463;SDS011;6804;48.774;9.174;2023-10-19T01:07:21;4.97;;;4.47;;
13463;SDS011;6804;48.774;9.174;2023-10-19T01:09:55;5.53;;;4.20;;
13463;SDS011;6804;48.774;9.174;2023-10-19T01:12:26;4.43;;;4.03;;
13463;SDS011;6804;48.774;9.174;2023-10-19T01:15:07;5.87;;;4.53;;
13463;SDS011;6804;48.774;9.174;2023-10-19T01:17:45;4.67;;;4.03;;
13463;SDS011;6804;48.774;9.174;2023-10-19T01:20:27;6.60;;;3.70;;
13463;SDS011;6804;48.774;9.174;2023-10-19T01:23:11;3.90;;;3.60;;
13463;SDS011;6804;48.774;9.174;2023-10-19T01:25:49;4.60;;;3.40;;
13463;SDS011;6804;48.774;9.174;2023-10-19T01:28:27;3.83;;;3.47;;
13463;SDS011;6804;48.774;9.174;2023-10-19T01:31:07;4.10;;;3.40;;
13463;SDS011;6804;48.774;9.174;2023-10-19T01:33:39;3.60;;;3.30;;
13463;SDS011;6804;48.774;9.174;2023-10-19T01:36:08;4.17;;;3.10;;
13463;SDS011;6804;48.774;9.174;2023-10-19T01:38:52;4.57;;;3.30;;
13463;SDS011;6804;48.774;9.174;2023-10-19T01:41:26;4.77;;;3.03;;
13463;SDS011;6804;48.774;9.174;2023-10-19T01:43:56;5.97;;;3.20;;
13463;SDS011;6804;48.774;9.174;2023-10-19T01:46:29;3.90;;;3.50;;
13463;SDS011;6804;48.774;9.174;2023-10-19T01:48:59;4.97;;;3.13;;
13463;SDS011;6804;48.774;9.174;2023-10-19T01:51:28;4.93;;;3.30;;
13463;SDS011;6804;48.774;9.174;2023-10-19T01:53:59;4.03;;;2.90;;
13463;SDS011;6804;48.774;9.174;2023-10-19T01:56:30;3.70;;;3.30;;
13463;SDS011;6804;48.774;9.174;2023-10-19T01:58:56;3.60;;;3.30;;
13463;SDS011;6804;48.774;9.174;2023-10-19T02:01:24;3.37;;;3.07;;
13463;SDS011;6804;48.774;9.174;2023-10-19T02:03:58;3.93;;;3.53;;
13463;SDS011;6804;48.774;9.174;2023-10-19T02:06:26;5.40;;;3.47;;
13463;SDS011;6804;48.774;9.174;2023-10-19T02:09:03;5.40;;;3.93;;
13463;SDS011;6804;48.774;9.174;2023-10-19T02:11:48;6.10;;;3.77;;
13463;SDS011;6804;48.774;9.174;2023-10-19T02:14:21;4.53;;;3.30;;
13463;SDS011;6804;48.774;9.174;2023-10-19T02:16:48;3.47;;;3.10;;
13463;SDS011;6804;48.774;9.174;2023-10-19T02:19:17;4.63;;;3.10;;
13463;SDS011;6804;48.774;9.174;2023-10-19T02:21:52;3.80;;;2.90;;
13463;SDS011;6804;48.774;9.174;2023-10-19T02:24:25;4.37;;;3.53;;
13463;SDS011;6804;48.774;9.174;2023-10-19T02:26:52;6.17;;;3.70;;
13463;SDS011;6804;48.774;9.174;2023-10-19T02:29:21;3.50;;;3.20;;
13463;SDS011;6804;48.774;9.174;2023-10-19T02:31:47;3.73;;;3.30;;
13463;SDS011;6804;48.774;9.174;2023-10-19T02:34:16;5.77;;;5.27;;
13463;SDS011;6804;48.774;9.174;2023-10-19T02:36:48;26.27;;;20.63;;
13463;SDS011;6804;48.774;9.174;2023-10-19T02:39:17;20.17;;;15.33;;
13463;SDS011;6804;48.774;9.174;2023-10-19T02:41:47;12.80;;;11.57;;
13463;SDS011;6804;48.774;9.174;2023-10-19T02:44:14;11.93;;;10.53;;
13463;SDS011;6804;48.774;9.174;2023-10-19T02:46:51;10.60;;;9.57;;
13463;SDS011;6804;48.774;9.174;2023-10-19T02:49:23;11.23;;;9.63;;
13463;SDS011;6804;48.774;9.174;2023-10-19T02:51:55;11.30;;;9.33;;
13463;SDS011;6804;48.774;9.174;2023-10-19T02:54:29;9.90;;;8.87;;
13463;SDS011;6804;48.774;9.174;2023-10-19T02:56:59;14.47;;;11.70;;
13463;SDS011;6804;48.774;9.174;2023-10-19T02:59:32;11.30;;;10.07;;
13463;SDS011;6804;48.774;9.174;2023-10-19T03:01:58;13.17;;;11.00;;
13463;SDS011;6804;48.774;9.174;2023-10-19T03:04:32;11.90;;;10.50;;
13463;SDS011;6804;48.774;9.174;2023-10-19T03:07:00;11.20;;;10.10;;
13463;SDS011;6804;48.774;9.174;2023-10-19T03:09:27;10.60;;;9.40;;
13463;SDS011;6804;48.774;9.174;2023-10-19T03:11:56;11.33;;;10.23;;
13463;SDS011;6804;48.774;9.174;2023-10-19T03:14:28;12.80;;;11.10;;
13463;SDS011;6804;48.774;9.174;2023-10-19T03:16:59;13.07;;;11.77;;
13463;SDS011;6804;48.774;9.174;2023-10-19T03:19:25;12.60;;;11.27;;
13463;SDS011;6804;48.774;9.174;2023-10-19T03:22:00;15.27;;;12.33;;
13463;SDS011;6804;48.774;9.174;2023-10-19T03:24:26;15.50;;;13.57;;
13463;SDS011;6804;48.774;9.174;2023-10-19T03:27:06;14.47;;;11.97;;
13463;SDS011;6804;48.774;9.174;2023-10-19T03:29:39;14.17;;;12.03;;
13463;SDS011;6804;48.774;9.174;2023-10-19T03:32:11;15.60;;;13.33;;
13463;SDS011;6804;48.774;9.174;2023-10-19T03:34:40;14.23;;;12.73;;
13463;SDS011;6804;48.774;9.174;2023-10-19T03:37:12;13.60;;;12.13;;
13463;SDS011;6804;48.774;9.174;2023-10-19T03:39:41;12.90;;;11.57;;
13463;SDS011;6804;48.774;9.174;2023-10-19T03:42:12;12.83;;;11.40;;
13463;SDS011;6804;48.774;9.174;2023-10-19T03:47:15;11.27;;;10.17;;
13463;SDS011;6804;48.774;9.174;2023-10-19T03:49:51;10.60;;;8.60;;
13463;SDS011;6804;48.774;9.174;2023-10-19T03:52:19;8.43;;;7.50;;
13463;SDS011;6804;48.774;9.174;2023-10-19T03:57:56;6.90;;;5.00;;
13463;SDS011;6804;48.774;9.174;2023-10-19T04:00:28;5.60;;;4.30;;
13463;SDS011;6804;48.774;9.174;2023-10-19T04:02:58;5.13;;;3.70;;
13463;SDS011;6804;48.774;9.174;2023-10-19T04:05:27;5.23;;;3.87;;
13463;SDS011;6804;48.774;9.174;2023-10-19T04:07:57;5.20;;;3.40;;
13463;SDS011;6804;48.774;9.174;2023-10-19T04:10:38;4.57;;;3.60;;
13463;SDS011;6804;48.774;9.174;2023-10-19T04:13:10;4.90;;;3.27;;
13463;SDS011;6804;48.774;9.174;2023-10-19T04:15:41;4.53;;;3.13;;
13463;SDS011;6804;48.774;9.174;2023-10-19T04:18:12;6.83;;;4.20;;
13463;SDS011;6804;48.774;9.174;2023-10-19T04:20:41;6.07;;;4.70;;
13463;SDS011;6804;48.774;9.174;2023-10-19T04:23:20;5.67;;;5.17;;
13463;SDS011;6804;48.774;9.174;2023-10-19T04:25:52;8.70;;;7.30;;
13463;SDS011;6804;48.774;9.174;2023-10-19T04:28:25;10.17;;;8.43;;
13463;SDS011;6804;48.774;9.174;2023-10-19T04:31:05;10.30;;;8.40;;
13463;SDS011;6804;48.774;9.174;2023-10-19T04:33:34;10.97;;;8.93;;
13463;SDS011;6804;48.774;9.174;2023-10-19T04:36:01;11.87;;;9.57;;
13463;SDS011;6804;48.774;9.174;2023-10-19T04:38:31;11.63;;;9.63;;
13463;SDS011;6804;48.774;9.174;2023-10-19T04:41:05;11.17;;;10.00;;
13463;SDS011;6804;48.774;9.174;2023-10-19T04:43:39;10.97;;;9.87;;
13463;SDS011;6804;48.774;9.174;2023-10-19T04:46:17;13.23;;;9.93;;
13463;SDS011;6804;48.774;9.174;2023-10-19T04:48:48;11.33;;;9.67;;
13463;SDS011;6804;48.774;9.174;2023-10-19T04:51:24;13.30;;;9.60;;
13463;SDS011;6804;48.774;9.174;2023-10-19T04:53:55;11.03;;;9.07;;
13463;SDS011;6804;48.774;9.174;2023-10-19T04:56:24;10.70;;;9.60;;
13463;SDS011;6804;48.774;9.174;2023-10-19T04:58:52;10.90;;;9.80;;
13463;SDS011;6804;48.774;9.174;2023-10-19T05:01:24;10.67;;;9.57;;
13463;SDS011;6804;48.774;9.174;2023-10-19T05:03:53;12.60;;;8.70;;
13463;SDS011;6804;48.774;9.174;2023-10-19T05:06:21;9.77;;;8.40;;
13463;SDS011;6804;48.774;9.174;2023-10-19T05:08:49;9.40;;;7.67;;
13463;SDS011;6804;48.774;9.174;2023-10-19T05:11:19;11.70;;;8.73;;
13463;SDS011;6804;48.774;9.174;2023-10-19T05:13:51;12.67;;;10.13;;
13463;SDS011;6804;48.774;9.174;2023-10-19T05:16:23;14.33;;;10.90;;
13463;SDS011;6804;48.774;9.174;2023-10-19T05:18:53;13.53;;;10.73;;
13463;SDS011;6804;48.774;9.174;2023-10-19T05:21:21;12.37;;;10.03;;
13463;SDS011;6804;48.774;9.174;2023-10-19T05:23:51;14.57;;;10.50;;
13463;SDS011;6804;48.774;9.174;2023-10-19T05:26:21;13.03;;;10.60;;
13463;SDS011;6804;48.774;9.174;2023-10-19T05:28:51;12.30;;;9.40;;
13463;SDS011;6804;48.774;9.174;2023-10-19T05:31:20;12.23;;;10.10;;
13463;SDS011;6804;48.774;9.174;2023-10-19T05:33:50;11.27;;;10.03;;
13463;SDS011;6804;48.774;9.174;2023-10-19T05:36:21;12.80;;;9.70;;
13463;SDS011;6804;48.774;9.174;2023-10-19T05:38:50;13.97;;;10.07;;
13463;SDS011;6804;48.774;9.174;2023-10-19T05:41:18;11.87;;;10.67;;
13463;SDS011;6804;48.774;9.174;2023-10-19T05:43:48;16.23;;;10.13;;
13463;SDS011;6804;48.774;9.174;2023-10-19T05:46:16;11.67;;;10.23;;
13463;SDS011;6804;48.774;9.174;2023-10-19T05:48:46;14.00;;;10.23;;
13463;SDS011;6804;48.774;9.174;2023-10-19T05:51:15;13.73;;;9.67;;
13463;SDS011;6804;48.774;9.174;2023-10-19T05:53:43;11.97;;;9.77;;
13463;SDS011;6804;48.774;9.174;2023-10-19T05:56:15;24.60;;;10.53;;
13463;SDS011;6804;48.774;9.174;2023-10-19T05:58:47;14.23;;;9.23;;
13463;SDS011;6804;48.774;9.174;2023-10-19T06:01:16;16.43;;;9.43;;
13463;SDS011;6804;48.774;9.174;2023-10-19T06:03:46;15.83;;;10.40;;
13463;SDS011;6804;48.774;9.174;2023-10-19T06:06:14;14.77;;;11.93;;
13463;SDS011;6804;48.774;9.174;2023-10-19T06:08:45;17.60;;;11.00;;
13463;SDS011;6804;48.774;9.174;2023-10-19T06:11:13;27.60;;;11.57;;
13463;SDS011;6804;48.774;9.174;2023-10-19T06:13:40;28.87;;;12.63;;
13463;SDS011;6804;48.774;9.174;2023-10-19T06:16:08;14.37;;;11.77;;
13463;SDS011;6804;48.774;9.174;2023-10-19T06:18:36;17.57;;;11.50;;
13463;SDS011;6804;48.774;9.174;2023-10-19T06:21:04;14.10;;;9.97;;
13463;SDS011;6804;48.774;9.174;2023-10-19T06:23:36;14.87;;;10.60;;
13463;SDS011;6804;48.774;9.174;2023-10-19T06:26:09;13.03;;;10.87;;
13463;SDS011;6804;48.774;9.174;2023-10-19T06:28:40;16.87;;;11.77;;
13463;SDS011;6804;48.774;9.174;2023-10-19T06:31:10;11.20;;;10.03;;
13463;SDS011;6804;48.774;9.174;2023-10-19T06:33:40;15.27;;;11.30;;
13463;SDS011;6804;48.774;9.174;2023-10-19T06:36:10;13.63;;;11.23;;
13463;SDS011;6804;48.774;9.174;2023-10-19T06:38:41;15.40;;;12.20;;
13463;SDS011;6804;48.774;9.174;2023-10-19T06:41:10;13.47;;;11.17;;
13463;SDS011;6804;48.774;9.174;2023-10-19T06:46:36;12.93;;;10.80;;
13463;SDS011;6804;48.774;9.174;2023-10-19T06:49:06;15.73;;;10.87;;
13463;SDS011;6804;48.774;9.174;2023-10-19T06:51:36;13.80;;;11.23;;
13463;SDS011;6804;48.774;9.174;2023-10-19T06:54:09;13.63;;;9.57;;
13463;SDS011;6804;48.774;9.174;2023-10-19T06:56:38;12.97;;;10.90;;
13463;SDS011;6804;48.774;9.174;2023-10-19T06:59:08;12.17;;;10.60;;
13463;SDS011;6804;48.774;9.174;2023-10-19T07:01:37;17.63;;;12.07;;
13463;SDS011;6804;48.774;9.174;2023-10-19T07:04:05;13.87;;;10.93;;
13463;SDS011;6804;48.774;9.174;2023-10-19T07:06:37;13.47;;;11.47;;
13463;SDS011;6804;48.774;9.174;2023-10-19T07:09:06;14.37;;;11.97;;
13463;SDS011;6804;48.774;9.174;2023-10-19T07:11:37;15.13;;;11.03;;
13463;SDS011;6804;48.774;9.174;2023-10-19T07:14:05;17.37;;;11.77;;
13463;SDS011;6804;48.774;9.174;2023-10-19T07:16:33;15.13;;;10.97;;
13463;SDS011;6804;48.774;9.174;2023-10-19T07:19:01;14.07;;;10.77;;
13463;SDS011;6804;48.774;9.174;2023-10-19T07:21:35;14.60;;;11.10;;
13463;SDS011;6804;48.774;9.174;2023-10-19T07:24:09;14.97;;;10.77;;
13463;SDS011;6804;48.774;9.174;2023-10-19T07:26:41;17.80;;;12.43;;
13463;SDS011;6804;48.774;9.174;2023-10-19T07:29:19;13.30;;;10.87;;
13463;SDS011;6804;48.774;9.174;2023-10-19T07:31:47;14.10;;;10.73;;
13463;SDS011;6804;48.774;9.174;2023-10-19T07:34:14;15.03;;;11.20;;
13463;SDS011;6804;48.774;9.174;2023-10-19T07:36:43;13.83;;;10.57;;
13463;SDS011;6804;48.774;9.174;2023-10-19T07:39:13;16.27;;;12.67;;
13463;SDS011;6804;48.774;9.174;2023-10-19T07:41:52;16.57;;;11.43;;
13463;SDS011;6804;48.774;9.174;2023-10-19T07:44:22;15.67;;;11.17;;
13463;SDS011;6804;48.774;9.174;2023-10-19T07:46:52;15.47;;;10.97;;
13463;SDS011;6804;48.774;9.174;2023-10-19T07:49:21;13.80;;;10.17;;
13463;SDS011;6804;48.774;9.174;2023-10-19T07:51:52;15.67;;;10.60;;
13463;SDS011;6804;48.774;9.174;2023-10-19T07:54:22;14.67;;;11.00;;
13463;SDS011;6804;48.774;9.174;2023-10-19T07:56:49;14.93;;;11.70;;
13463;SDS011;6804;48.774;9.174;2023-10-19T07:59:19;24.73;;;11.67;;
13463;SDS011;6804;48.774;9.174;2023-10-19T08:01:48;15.00;;;10.20;;
13463;SDS011;6804;48.774;9.174;2023-10-19T08:04:18;14.67;;;9.73;;
13463;SDS011;6804;48.774;9.174;2023-10-19T08:06:45;15.63;;;9.73;;
13463;SDS011;6804;48.774;9.174;2023-10-19T08:09:16;12.63;;;9.80;;
13463;SDS011;6804;48.774;9.174;2023-10-19T08:11:52;10.60;;;9.03;;
13463;SDS011;6804;48.774;9.174;2023-10-19T08:14:23;12.30;;;10.03;;
13463;SDS011;6804;48.774;9.174;2023-10-19T08:16:55;19.10;;;10.23;;
13463;SDS011;6804;48.774;9.174;2023-10-19T08:19:25;22.90;;;11.43;;
13463;SDS011;6804;48.774;9.174;2023-10-19T08:21:56;17.03;;;11.23;;
13463;SDS011;6804;48.774;9.174;2023-10-19T08:24:24;12.47;;;9.57;;
13463;SDS011;6804;48.774;9.174;2023-10-19T08:26:58;13.17;;;10.00;;
13463;SDS011;6804;48.774;9.174;2023-10-19T08:29:27;11.07;;;8.67;;
13463;SDS011;6804;48.774;9.174;2023-10-19T08:32:00;12.03;;;8.20;;
13463;SDS011;6804;48.774;9.174;2023-10-19T08:34:28;15.53;;;8.93;;
13463;SDS011;6804;48.774;9.174;2023-10-19T08:37:01;16.47;;;10.13;;
13463;SDS011;6804;48.774;9.174;2023-10-19T08:39:29;11.80;;;8.90;;
13463;SDS011;6804;48.774;9.174;2023-10-19T08:42:01;15.33;;;8.87;;
13463;SDS011;6804;48.774;9.174;2023-10-19T08:44:31;16.23;;;10.60;;
13463;SDS011;6804;48.774;9.174;2023-10-19T08:47:01;13.93;;;10.07;;
13463;SDS011;6804;48.774;9.174;2023-10-19T08:49:31;13.80;;;10.17;;
13463;SDS011;6804;48.774;9.174;2023-10-19T08:51:59;13.13;;;10.03;;
13463;SDS011;6804;48.774;9.174;2023-10-19T08:54:31;11.40;;;9.60;;
13463;SDS011;6804;48.774;9.174;2023-10-19T08:57:00;20.53;;;10.60;;
13463;SDS011;6804;48.774;9.174;2023-10-19T08:59:29;15.37;;;9.80;;
13463;SDS011;6804;48.774;9.174;2023-10-19T09:02:02;15.97;;;10.03;;
13463;SDS011;6804;48.774;9.174;2023-10-19T09:04:32;16.13;;;10.80;;
13463;SDS011;6804;48.774;9.174;2023-10-19T09:07:09;13.43;;;10.30;;
13463;SDS011;6804;48.774;9.174;2023-10-19T09:09:43;10.77;;;8.47;;
13463;SDS011;6804;48.774;9.174;2023-10-19T09:12:13;11.67;;;9.03;;
13463;SDS011;6804;48.774;9.174;2023-10-19T09:14:44;12.90;;;7.60;;
13463;SDS011;6804;48.774;9.174;2023-10-19T09:17:11;16.83;;;8.53;;
13463;SDS011;6804;48.774;9.174;2023-10-19T09:19:41;8.83;;;6.03;;
13463;SDS011;6804;48.774;9.174;2023-10-19T09:22:10;11.47;;;6.10;;
13463;SDS011;6804;48.774;9.174;2023-10-19T09:24:48;10.63;;;6.50;;
13463;SDS011;6804;48.774;9.174;2023-10-19T09:27:24;26.10;;;9.53;;
13463;SDS011;6804;48.774;9.174;2023-10-19T09:29:53;19.33;;;9.20;;
13463;SDS011;6804;48.774;9.174;2023-10-19T09:32:23;25.83;;;8.70;;
13463;SDS011;6804;48.774;9.174;2023-10-19T09:34:51;8.43;;;6.63;;
13463;SDS011;6804;48.774;9.174;2023-10-19T09:37:22;15.07;;;7.10;;
13463;SDS011;6804;48.774;9.174;2023-10-19T09:42:40;7.53;;;5.30;;
13463;SDS011;6804;48.774;9.174;2023-10-19T09:45:14;8.17;;;5.10;;
13463;SDS011;6804;48.774;9.174;2023-10-19T09:47:47;5.83;;;4.50;;
13463;SDS011;6804;48.774;9.174;2023-10-19T09:50:17;6.87;;;4.50;;
13463;SDS011;6804;48.774;9.174;2023-10-19T09:52:52;7.53;;;5.23;;
13463;SDS011;6804;48.774;9.174;2023-10-19T09:55:22;11.37;;;5.20;;
13463;SDS011;6804;48.774;9.174;2023-10-19T09:57:57;14.30;;;4.57;;
13463;SDS011;6804;48.774;9.174;2023-10-19T10:00:31;5.00;;;2.63;;
13463;SDS011;6804;48.774;9.174;2023-10-19T10:03:02;5.93;;;3.50;;
13463;SDS011;6804;48.774;9.174;2023-10-19T10:05:46;3.10;;;2.40;;
13463;SDS011;6804;48.774;9.174;2023-10-19T10:08:31;2.53;;;2.13;;
13463;SDS011;6804;48.774;9.174;2023-10-19T10:11:13;3.17;;;2.47;;
13463;SDS011;6804;48.774;9.174;2023-10-19T10:13:43;3.70;;;2.30;;
13463;SDS011;6804;48.774;9.174;2023-10-19T10:16:19;2.40;;;2.20;;
13463;SDS011;6804;48.774;9.174;2023-10-19T10:18:49;3.30;;;2.60;;
13463;SDS011;6804;48.774;9.174;2023-10-19T10:21:21;3.40;;;2.90;;
13463;SDS011;6804;48.774;9.174;2023-10-19T10:23:53;3.87;;;2.93;;
13463;SDS011;6804;48.774;9.174;2023-10-19T10:26:24;5.27;;;3.00;;
13463;SDS011;6804;48.774;9.174;2023-10-19T10:29:07;4.73;;;3.00;;
13463;SDS011;6804;48.774;9.174;2023-10-19T10:31:45;7.90;;;2.73;;
13463;SDS011;6804;48.774;9.174;2023-10-19T10:37:12;5.13;;;4.00;;
13463;SDS011;6804;48.774;9.174;2023-10-19T10:39:40;9.30;;;3.40;;
13463;SDS011;6804;48.774;9.174;2023-10-19T10:42:11;5.53;;;3.10;;
13463;SDS011;6804;48.774;9.174;2023-10-19T10:44:44;5.93;;;3.70;;
13463;SDS011;6804;48.774;9.174;2023-10-19T10:47:19;4.10;;;3.40;;
13463;SDS011;6804;48.774;9.174;2023-10-19T10:49:53;5.57;;;3.50;;
13463;SDS011;6804;48.774;9.174;2023-10-19T10:52:28;5.03;;;3.20;;
13463;SDS011;6804;48.774;9.174;2023-10-19T10:55:07;4.97;;;3.30;;
13463;SDS011;6804;48.774;9.174;2023-10-19T10:57:36;4.40;;;3.80;;
13463;SDS011;6804;48.774;9.174;2023-10-19T11:00:05;4.73;;;3.30;;
13463;SDS011;6804;48.774;9.174;2023-10-19T11:02:36;4.57;;;3.97;;
13463;SDS011;6804;48.774;9.174;2023-10-19T11:05:08;4.10;;;3.70;;
13463;SDS011;6804;48.774;9.174;2023-10-19T11:10:34;5.87;;;3.63;;
13463;SDS011;6804;48.774;9.174;2023-10-19T11:13:04;4.33;;;3.60;;
13463;SDS011;6804;48.774;9.174;2023-10-19T11:15:33;4.10;;;3.67;;
13463;SDS011;6804;48.774;9.174;2023-10-19T11:18:04;4.20;;;3.80;;
13463;SDS011;6804;48.774;9.174;2023-10-19T11:20:33;4.10;;;3.40;;
13463;SDS011;6804;48.774;9.174;2023-10-19T11:23:01;4.53;;;3.57;;
13463;SDS011;6804;48.774;9.174;2023-10-19T11:25:29;4.03;;;3.20;;
13463;SDS011;6804;48.774;9.174;2023-10-19T11:30:42;3.87;;;3.07;;
13463;SDS011;6804;48.774;9.174;2023-10-19T11:33:16;3.67;;;3.00;;
13463;SDS011;6804;48.774;9.174;2023-10-19T11:38:38;4.00;;;2.83;;
13463;SDS011;6804;48.774;9.174;2023-10-19T11:41:12;6.93;;;3.83;;
13463;SDS011;6804;48.774;9.174;2023-10-19T11:43:41;4.43;;;2.50;;
13463;SDS011;6804;48.774;9.174;2023-10-19T11:46:10;2.57;;;2.30;;
13463;SDS011;6804;48.774;9.174;2023-10-19T11:48:44;3.57;;;2.40;;
13463;SDS011;6804;48.774;9.174;2023-10-19T11:51:14;4.87;;;2.63;;
13463;SDS011;6804;48.774;9.174;2023-10-19T11:53:45;9.53;;;4.07;;
13463;SDS011;6804;48.774;9.174;2023-10-19T11:56:15;5.37;;;2.87;;
13463;SDS011;6804;48.774;9.174;2023-10-19T11:58:46;5.40;;;2.63;;
13463;SDS011;6804;48.774;9.174;2023-10-19T12:01:18;6.60;;;3.73;;
13463;SDS011;6804;48.774;9.174;2023-10-19T12:03:47;8.77;;;3.83;;
13463;SDS011;6804;48.774;9.174;2023-10-19T12:06:16;6.37;;;2.87;;
13463;SDS011;6804;48.774;9.174;2023-10-19T12:08:47;2.20;;;1.80;;
13463;SDS011;6804;48.774;9.174;2023-10-19T12:11:15;13.43;;;4.63;;
13463;SDS011;6804;48.774;9.174;2023-10-19T12:13:44;3.93;;;2.33;;
13463;SDS011;6804;48.774;9.174;2023-10-19T12:16:14;4.70;;;2.70;;
13463;SDS011;6804;48.774;9.174;2023-10-19T12:18:43;7.63;;;3.23;;
13463;SDS011;6804;48.774;9.174;2023-10-19T12:21:15;5.70;;;2.30;;
13463;SDS011;6804;48.774;9.174;2023-10-19T12:23:43;3.10;;;1.80;;
13463;SDS011;6804;48.774;9.174;2023-10-19T12:26:16;6.57;;;3.47;;
13463;SDS011;6804;48.774;9.174;2023-10-19T12:28:45;2.70;;;2.40;;
13463;SDS011;6804;48.774;9.174;2023-10-19T12:31:13;4.80;;;2.90;;
13463;SDS011;6804;48.774;9.174;2023-10-19T12:33:44;6.37;;;3.00;;
13463;SDS011;6804;48.774;9.174;2023-10-19T12:36:14;15.27;;;6.50;;
13463;SDS011;6804;48.774;9.174;2023-10-19T12:38:59;11.33;;;4.40;;
13463;SDS011;6804;48.774;9.174;2023-10-19T12:41:28;5.47;;;3.80;;
13463;SDS011;6804;48.774;9.174;2023-10-19T12:43:57;16.00;;;9.77;;
13463;SDS011;6804;48.774;9.174;2023-10-19T12:46:27;8.17;;;6.27;;
13463;SDS011;6804;48.774;9.174;2023-10-19T12:48:55;10.53;;;6.87;;
13463;SDS011;6804;48.774;9.174;2023-10-19T12:54:13;7.20;;;5.13;;
13463;SDS011;6804;48.774;9.174;2023-10-19T12:56:46;7.03;;;4.50;;
13463;SDS011;6804;48.774;9.174;2023-10-19T12:59:18;5.50;;;4.10;;
13463;SDS011;6804;48.774;9.174;2023-10-19T13:01:47;4.57;;;3.30;;
13463;SDS011;6804;48.774;9.174;2023-10-19T13:04:20;4.93;;;3.30;;
13463;SDS011;6804;48.774;9.174;2023-10-19T13:06:50;6.37;;;3.17;;
13463;SDS011;6804;48.774;9.174;2023-10-19T13:09:23;6.07;;;3.53;;
13463;SDS011;6804;48.774;9.174;2023-10-19T13:11:58;6.33;;;3.40;;
13463;SDS011;6804;48.774;9.174;2023-10-19T13:14:28;3.67;;;2.80;;
13463;SDS011;6804;48.774;9.174;2023-10-19T13:16:56;4.43;;;3.40;;
13463;SDS011;6804;48.774;9.174;2023-10-19T13:19:27;3.87;;;3.10;;
13463;SDS011;6804;48.774;9.174;2023-10-19T13:21:57;5.23;;;3.27;;
13463;SDS011;6804;48.774;9.174;2023-10-19T13:24:30;5.80;;;3.73;;
13463;SDS011;6804;48.774;9.174;2023-10-19T13:27:06;5.10;;;3.23;;
13463;SDS011;6804;48.774;9.174;2023-10-19T13:29:35;4.87;;;3.30;;
13463;SDS011;6804;48.774;9.174;2023-10-19T13:32:07;4.17;;;2.93;;
13463;SDS011;6804;48.774;9.174;2023-10-19T13:34:34;4.23;;;3.30;;
13463;SDS011;6804;48.774;9.174;2023-10-19T13:37:05;5.67;;;4.37;;
13463;SDS011;6804;48.774;9.174;2023-10-19T13:39:33;5.67;;;3.90;;
13463;SDS011;6804;48.774;9.174;2023-10-19T13:42:05;5.50;;;3.90;;
13463;SDS011;6804;48.774;9.174;2023-10-19T13:44:34;6.07;;;3.53;;
13463;SDS011;6804;48.774;9.174;2023-10-19T13:47:04;3.93;;;3.20;;
13463;SDS011;6804;48.774;9.174;2023-10-19T13:49:39;6.87;;;4.63;;
13463;SDS011;6804;48.774;9.174;2023-10-19T13:52:10;3.47;;;3.17;;
13463;SDS011;6804;48.774;9.174;2023-10-19T13:54:40;4.83;;;3.00;;
13463;SDS011;6804;48.774;9.174;2023-10-19T13:57:11;8.63;;;6.03;;
13463;SDS011;6804;48.774;9.174;2023-10-19T13:59:39;7.50;;;5.30;;
13463;SDS011;6804;48.774;9.174;2023-10-19T14:02:10;5.47;;;3.90;;
13463;SDS011;6804;48.774;9.174;2023-10-19T14:04:37;4.13;;;3.40;;
13463;SDS011;6804;48.774;9.174;2023-10-19T14:07:10;4.23;;;3.83;;
13463;SDS011;6804;48.774;9.174;2023-10-19T14:09:38;6.27;;;5.07;;
13463;SDS011;6804;48.774;9.174;2023-10-19T14:12:10;5.70;;;4.70;;
13463;SDS011;6804;48.774;9.174;2023-10-19T14:14:38;4.73;;;4.07;;
13463;SDS011;6804;48.774;9.174;2023-10-19T14:17:06;11.37;;;7.17;;
13463;SDS011;6804;48.774;9.174;2023-10-19T14:19:34;10.83;;;7.27;;
13463;SDS011;6804;48.774;9.174;2023-10-19T14:22:11;10.43;;;6.17;;
13463;SDS011;6804;48.774;9.174;2023-10-19T14:24:40;17.77;;;12.23;;
13463;SDS011;6804;48.774;9.174;2023-10-19T14:27:08;11.37;;;9.70;;
13463;SDS011;6804;48.774;9.174;2023-10-19T14:29:38;21.43;;;14.73;;
13463;SDS011;6804;48.774;9.174;2023-10-19T14:32:06;18.00;;;10.20;;
13463;SDS011;6804;48.774;9.174;2023-10-19T14:34:34;10.37;;;7.40;;
13463;SDS011;6804;48.774;9.174;2023-10-19T14:37:03;7.87;;;5.93;;
13463;SDS011;6804;48.774;9.174;2023-10-19T14:39:34;7.80;;;6.70;;
13463;SDS011;6804;48.774;9.174;2023-10-19T14:42:02;9.70;;;6.43;;
13463;SDS011;6804;48.774;9.174;2023-10-19T14:44:30;8.87;;;6.70;;
13463;SDS011;6804;48.774;9.174;2023-10-19T14:46:58;13.30;;;10.07;;
13463;SDS011;6804;48.774;9.174;2023-10-19T14:49:25;8.43;;;6.00;;
13463;SDS011;6804;48.774;9.174;2023-10-19T14:51:53;8.17;;;6.03;;
13463;SDS011;6804;48.774;9.174;2023-10-19T14:54:21;8.00;;;5.70;;
13463;SDS011;6804;48.774;9.174;2023-10-19T14:56:51;8.30;;;6.40;;
13463;SDS011;6804;48.774;9.174;2023-10-19T14:59:18;8.73;;;5.27;;
13463;SDS011;6804;48.774;9.174;2023-10-19T15:01:46;6.20;;;5.60;;
13463;SDS011;6804;48.774;9.174;2023-10-19T15:04:14;7.23;;;5.30;;
13463;SDS011;6804;48.774;9.174;2023-10-19T15:06:42;5.37;;;4.73;;
13463;SDS011;6804;48.774;9.174;2023-10-19T15:09:10;7.70;;;5.80;;
13463;SDS011;6804;48.774;9.174;2023-10-19T15:11:51;5.10;;;4.30;;
13463;SDS011;6804;48.774;9.174;2023-10-19T15:14:20;5.43;;;4.63;;
13463;SDS011;6804;48.774;9.174;2023-10-19T15:16:50;5.43;;;4.90;;
13463;SDS011;6804;48.774;9.174;2023-10-19T15:19:17;6.53;;;4.37;;
13463;SDS011;6804;48.774;9.174;2023-10-19T15:21:49;6.73;;;5.50;;
13463;SDS011;6804;48.774;9.174;2023-10-19T15:24:17;8.17;;;6.50;;
13463;SDS011;6804;48.774;9.174;2023-10-19T15:26:49;7.57;;;5.80;;
13463;SDS011;6804;48.774;9.174;2023-10-19T15:29:23;5.90;;;5.33;;
13463;SDS011;6804;48.774;9.174;2023-10-19T15:31:50;8.00;;;6.23;;
13463;SDS011;6804;48.774;9.174;2023-10-19T15:34:21;5.60;;;4.87;;
13463;SDS011;6804;48.774;9.174;2023-10-19T15:36:49;6.57;;;5.90;;
13463;SDS011;6804;48.774;9.174;2023-10-19T15:42:09;6.57;;;4.90;;